sensor_id;sensor_type;location;lat;lon;timestamp;pressure;altitude;pressure_sealevel;temperature;humidity
40490;BME280;26196;52.302;10.572;2022-08-19T00:03:08;100274.75;;;25.58;46.69
40490;BME280;26196;52.302;10.572;2022-08-19T00:07:09;100268.53;;;25.57;46.86
40490;BME280;26196;52.302;10.572;2022-08-19T00:11:10;100269.66;;;25.54;47.14
40490;BME280;26196;52.302;10.572;2022-08-19T00:15:17;100265.59;;;25.50;47.13
40490;BME280;26196;52.302;10.572;2022-08-19T00:19:18;100263.75;;;25.51;47.10
40490;BME280;26196;52.302;10.572;2022-08-19T00:23:19;100267.69;;;25.47;47.33
40490;BME280;26196;52.302;10.572;2022-08-19T00:27:19;100265.72;;;25.49;46.90
40490;BME280;26196;52.302;10.572;2022-08-19T00:31:20;100262.34;;;25.47;47.08
40490;BME280;26196;52.302;10.572;2022-08-19T00:35:21;100274.78;;;25.48;47.56
40490;BME280;26196;52.302;10.572;2022-08-19T00:39:22;100274.19;;;25.44;47.31
40490;BME280;26196;52.302;10.572;2022-08-19T00:43:26;100275.75;;;25.47;47.06
40490;BME280;26196;52.302;10.572;2022-08-19T00:47:26;100274.19;;;25.44;47.12
40490;BME280;26196;52.302;10.572;2022-08-19T00:51:29;100278.72;;;25.44;47.14
40490;BME280;26196;52.302;10.572;2022-08-19T00:55:33;100271.09;;;25.39;47.02
40490;BME280;26196;52.302;10.572;2022-08-19T00:59:35;100270.13;;;25.40;47.38
40490;BME280;26196;52.302;10.572;2022-08-19T01:03:37;100260.97;;;25.43;47.27
40490;BME280;26196;52.302;10.572;2022-08-19T01:07:38;100258.41;;;25.41;47.32
40490;BME280;26196;52.302;10.572;2022-08-19T01:11:42;100260.25;;;25.41;47.38
40490;BME280;26196;52.302;10.572;2022-08-19T01:15:55;100255.91;;;25.40;47.75
40490;BME280;26196;52.302;10.572;2022-08-19T01:19:56;100260.38;;;25.39;47.50
40490;BME280;26196;52.302;10.572;2022-08-19T01:23:57;100253.50;;;25.37;47.38
40490;BME280;26196;52.302;10.572;2022-08-19T01:27:58;100249.81;;;25.38;47.16
40490;BME280;26196;52.302;10.572;2022-08-19T01:32:00;100252.78;;;25.35;47.32
40490;BME280;26196;52.302;10.572;2022-08-19T01:36:09;100264.34;;;25.35;47.04
40490;BME280;26196;52.302;10.572;2022-08-19T01:40:10;100251.25;;;25.32;47.24
40490;BME280;26196;52.302;10.572;2022-08-19T01:44:11;100234.59;;;25.28;47.24
40490;BME280;26196;52.302;10.572;2022-08-19T01:48:12;100243.06;;;25.33;47.28
40490;BME280;26196;52.302;10.572;2022-08-19T01:52:13;100238.97;;;25.29;47.44
40490;BME280;26196;52.302;10.572;2022-08-19T01:56:13;100233.63;;;25.29;47.44
40490;BME280;26196;52.302;10.572;2022-08-19T02:00:16;100233.75;;;25.28;47.45
40490;BME280;26196;52.302;10.572;2022-08-19T02:04:18;100234.75;;;25.27;47.35
40490;BME280;26196;52.302;10.572;2022-08-19T02:08:19;100222.50;;;25.24;47.52
40490;BME280;26196;52.302;10.572;2022-08-19T02:12:19;100231.25;;;25.26;47.66
40490;BME280;26196;52.302;10.572;2022-08-19T02:16:21;100235.88;;;25.24;47.70
40490;BME280;26196;52.302;10.572;2022-08-19T02:20:21;100243.22;;;25.22;47.61
40490;BME280;26196;52.302;10.572;2022-08-19T02:24:22;100243.22;;;25.22;47.59
40490;BME280;26196;52.302;10.572;2022-08-19T02:28:23;100243.22;;;25.22;47.39
40490;BME280;26196;52.302;10.572;2022-08-19T02:32:23;100232.78;;;25.19;47.55
40490;BME280;26196;52.302;10.572;2022-08-19T02:36:25;100230.25;;;25.18;47.62
40490;BME280;26196;52.302;10.572;2022-08-19T02:40:26;100229.53;;;25.16;47.49
40490;BME280;26196;52.302;10.572;2022-08-19T02:44:27;100229.41;;;25.17;47.48
40490;BME280;26196;52.302;10.572;2022-08-19T02:48:29;100221.25;;;25.19;47.36
40490;BME280;26196;52.302;10.572;2022-08-19T02:52:32;100226.00;;;25.15;47.58
40490;BME280;26196;52.302;10.572;2022-08-19T02:56:37;100227.97;;;25.13;47.60
40490;BME280;26196;52.302;10.572;2022-08-19T03:00:50;100223.72;;;25.10;47.56
40490;BME280;26196;52.302;10.572;2022-08-19T03:04:51;100229.78;;;25.13;47.39
40490;BME280;26196;52.302;10.572;2022-08-19T03:08:51;100231.75;;;25.10;47.38
40490;BME280;26196;52.302;10.572;2022-08-19T03:12:52;100229.25;;;25.09;47.31
40490;BME280;26196;52.302;10.572;2022-08-19T03:16:52;100229.25;;;25.09;47.31
40490;BME280;26196;52.302;10.572;2022-08-19T03:20:53;100245.44;;;25.07;47.34
40490;BME280;26196;52.302;10.572;2022-08-19T03:24:54;100248.28;;;25.06;47.14
40490;BME280;26196;52.302;10.572;2022-08-19T03:28:55;100246.56;;;25.05;47.13
40490;BME280;26196;52.302;10.572;2022-08-19T03:32:56;100243.22;;;25.03;47.13
40490;BME280;26196;52.302;10.572;2022-08-19T03:36:59;100245.03;;;25.02;47.17
40490;BME280;26196;52.302;10.572;2022-08-19T03:41:05;100247.84;;;25.01;47.18
40490;BME280;26196;52.302;10.572;2022-08-19T03:45:06;100259.53;;;25.00;47.12
40490;BME280;26196;52.302;10.572;2022-08-19T03:49:07;100254.47;;;24.97;47.15
40490;BME280;26196;52.302;10.572;2022-08-19T03:53:08;100254.34;;;24.98;47.05
40490;BME280;26196;52.302;10.572;2022-08-19T03:57:09;100249.94;;;24.97;47.06
40490;BME280;26196;52.302;10.572;2022-08-19T04:01:12;100251.94;;;24.95;46.93
40490;BME280;26196;52.302;10.572;2022-08-19T04:05:13;100248.56;;;24.93;47.02
40490;BME280;26196;52.302;10.572;2022-08-19T04:09:15;100250.41;;;24.93;46.98
40490;BME280;26196;52.302;10.572;2022-08-19T04:13:17;100243.50;;;24.90;46.92
40490;BME280;26196;52.302;10.572;2022-08-19T04:17:18;100255.16;;;24.89;47.00
40490;BME280;26196;52.302;10.572;2022-08-19T04:21:21;100261.53;;;24.88;47.07
40490;BME280;26196;52.302;10.572;2022-08-19T04:25:22;100266.03;;;24.87;47.01
40490;BME280;26196;52.302;10.572;2022-08-19T04:29:24;100268.00;;;24.85;47.07
40490;BME280;26196;52.302;10.572;2022-08-19T04:33:25;100267.16;;;24.85;47.14
40490;BME280;26196;52.302;10.572;2022-08-19T04:37:26;100275.31;;;24.83;47.06
40490;BME280;26196;52.302;10.572;2022-08-19T04:41:27;100269.97;;;24.83;46.97
40490;BME280;26196;52.302;10.572;2022-08-19T04:45:46;100283.50;;;24.82;46.95
40490;BME280;26196;52.302;10.572;2022-08-19T04:49:47;100280.94;;;24.80;46.95
40490;BME280;26196;52.302;10.572;2022-08-19T04:53:48;100285.47;;;24.80;46.92
40490;BME280;26196;52.302;10.572;2022-08-19T04:57:48;100282.19;;;24.76;47.11
40490;BME280;26196;52.302;10.572;2022-08-19T05:01:50;100279.53;;;24.76;47.04
40490;BME280;26196;52.302;10.572;2022-08-19T05:05:51;100275.16;;;24.75;46.95
40490;BME280;26196;52.302;10.572;2022-08-19T05:09:52;100273.50;;;24.74;46.86
40490;BME280;26196;52.302;10.572;2022-08-19T05:13:52;100264.59;;;24.74;47.03
40490;BME280;26196;52.302;10.572;2022-08-19T05:17:53;100264.75;;;24.72;47.06
40490;BME280;26196;52.302;10.572;2022-08-19T05:22:11;100261.47;;;24.68;47.07
40490;BME280;26196;52.302;10.572;2022-08-19T05:26:30;100261.47;;;24.68;47.04
40490;BME280;26196;52.302;10.572;2022-08-19T05:30:31;100269.78;;;24.65;47.05
40490;BME280;26196;52.302;10.572;2022-08-19T05:34:34;100266.28;;;24.65;47.24
40490;BME280;26196;52.302;10.572;2022-08-19T05:38:35;100264.59;;;24.64;47.25
40490;BME280;26196;52.302;10.572;2022-08-19T05:42:36;100275.56;;;24.61;47.31
40490;BME280;26196;52.302;10.572;2022-08-19T05:46:37;100270.19;;;24.61;47.21
40490;BME280;26196;52.302;10.572;2022-08-19T05:50:40;100269.66;;;24.57;47.22
40490;BME280;26196;52.302;10.572;2022-08-19T05:54:41;100286.25;;;24.61;47.35
40490;BME280;26196;52.302;10.572;2022-08-19T05:58:44;100271.31;;;24.58;47.17
40490;BME280;26196;52.302;10.572;2022-08-19T06:02:45;100274.16;;;24.57;47.33
40490;BME280;26196;52.302;10.572;2022-08-19T06:06:47;100273.31;;;24.56;47.27
40490;BME280;26196;52.302;10.572;2022-08-19T06:10:47;100293.84;;;24.56;47.44
40490;BME280;26196;52.302;10.572;2022-08-19T06:14:48;100284.16;;;24.55;47.27
40490;BME280;26196;52.302;10.572;2022-08-19T06:18:52;100287.94;;;24.52;47.55
40490;BME280;26196;52.302;10.572;2022-08-19T06:22:52;100296.97;;;24.51;47.53
40490;BME280;26196;52.302;10.572;2022-08-19T06:26:55;100301.47;;;24.51;47.58
40490;BME280;26196;52.302;10.572;2022-08-19T06:30:56;100303.28;;;24.50;47.47
40490;BME280;26196;52.302;10.572;2022-08-19T06:35:01;100304.41;;;24.48;47.54
40490;BME280;26196;52.302;10.572;2022-08-19T06:39:07;100309.91;;;24.46;47.79
40490;BME280;26196;52.302;10.572;2022-08-19T06:43:08;100319.75;;;24.45;47.54
40490;BME280;26196;52.302;10.572;2022-08-19T06:47:12;100323.13;;;24.48;47.46
40490;BME280;26196;52.302;10.572;2022-08-19T06:51:15;100328.75;;;24.44;47.45
40490;BME280;26196;52.302;10.572;2022-08-19T06:55:18;100317.56;;;24.39;47.65
40490;BME280;26196;52.302;10.572;2022-08-19T06:59:21;100333.34;;;24.42;47.63
40490;BME280;26196;52.302;10.572;2022-08-19T07:03:22;100347.59;;;24.43;47.58
40490;BME280;26196;52.302;10.572;2022-08-19T07:07:22;100352.34;;;24.39;47.44
40490;BME280;26196;52.302;10.572;2022-08-19T07:11:23;100352.63;;;24.36;47.59
40490;BME280;26196;52.302;10.572;2022-08-19T07:15:24;100361.38;;;24.38;47.34
40490;BME280;26196;52.302;10.572;2022-08-19T07:19:25;100367.69;;;24.37;47.43
40490;BME280;26196;52.302;10.572;2022-08-19T07:23:27;100367.69;;;24.37;47.42
40490;BME280;26196;52.302;10.572;2022-08-19T07:27:27;100365.00;;;24.28;47.40
40490;BME280;26196;52.302;10.572;2022-08-19T07:31:28;100375.69;;;24.28;47.59
40490;BME280;26196;52.302;10.572;2022-08-19T07:35:28;100381.59;;;24.31;47.69
40490;BME280;26196;52.302;10.572;2022-08-19T07:39:34;100386.97;;;24.31;47.62
40490;BME280;26196;52.302;10.572;2022-08-19T07:43:35;100395.97;;;24.30;47.74
40490;BME280;26196;52.302;10.572;2022-08-19T07:47:35;100407.63;;;24.29;47.69
40490;BME280;26196;52.302;10.572;2022-08-19T07:51:36;100412.25;;;24.27;47.56
40490;BME280;26196;52.302;10.572;2022-08-19T07:55:36;100421.84;;;24.30;47.55
40490;BME280;26196;52.302;10.572;2022-08-19T07:59:37;100413.97;;;24.28;47.65
40490;BME280;26196;52.302;10.572;2022-08-19T08:03:38;100407.34;;;24.22;47.48
40490;BME280;26196;52.302;10.572;2022-08-19T08:07:56;100420.44;;;24.26;47.66
40490;BME280;26196;52.302;10.572;2022-08-19T08:12:21;100423.22;;;24.24;47.61
40490;BME280;26196;52.302;10.572;2022-08-19T08:16:24;100415.34;;;24.22;47.75
40490;BME280;26196;52.302;10.572;2022-08-19T08:20:30;100405.78;;;24.20;47.97
40490;BME280;26196;52.302;10.572;2022-08-19T08:24:30;100406.59;;;24.20;47.77
40490;BME280;26196;52.302;10.572;2022-08-19T08:28:31;100399.56;;;24.19;47.86
40490;BME280;26196;52.302;10.572;2022-08-19T08:32:32;100398.72;;;24.19;47.90
40490;BME280;26196;52.302;10.572;2022-08-19T08:36:32;100403.22;;;24.18;47.90
40490;BME280;26196;52.302;10.572;2022-08-19T08:40:53;100406.03;;;24.17;48.10
40490;BME280;26196;52.302;10.572;2022-08-19T08:45:12;100406.88;;;24.17;47.98
40490;BME280;26196;52.302;10.572;2022-08-19T08:53:17;100416.97;;;24.14;48.25
40490;BME280;26196;52.302;10.572;2022-08-19T09:01:36;100413.47;;;24.13;48.36
40490;BME280;26196;52.302;10.572;2022-08-19T09:05:49;100417.84;;;24.14;48.25
40490;BME280;26196;52.302;10.572;2022-08-19T09:10:03;100408.38;;;24.10;48.34
40490;BME280;26196;52.302;10.572;2022-08-19T09:14:10;100404.59;;;24.13;48.36
40490;BME280;26196;52.302;10.572;2022-08-19T09:18:14;100401.91;;;24.13;48.18
40490;BME280;26196;52.302;10.572;2022-08-19T09:22:16;100410.78;;;24.13;48.32
40490;BME280;26196;52.302;10.572;2022-08-19T09:26:19;100418.81;;;24.13;48.46
40490;BME280;26196;52.302;10.572;2022-08-19T09:30:23;100428.66;;;24.13;48.75
40490;BME280;26196;52.302;10.572;2022-08-19T09:34:24;100425.25;;;24.11;48.70
40490;BME280;26196;52.302;10.572;2022-08-19T09:38:24;100434.28;;;24.10;48.42
40490;BME280;26196;52.302;10.572;2022-08-19T09:42:25;100437.78;;;24.10;48.44
40490;BME280;26196;52.302;10.572;2022-08-19T09:46:28;100439.47;;;24.11;48.42
40490;BME280;26196;52.302;10.572;2022-08-19T09:50:29;100437.78;;;24.10;48.47
40490;BME280;26196;52.302;10.572;2022-08-19T09:54:35;100435.97;;;24.11;48.42
40490;BME280;26196;52.302;10.572;2022-08-19T09:58:37;100436.94;;;24.10;48.30
40490;BME280;26196;52.302;10.572;2022-08-19T10:02:40;100435.38;;;24.07;48.45
40490;BME280;26196;52.302;10.572;2022-08-19T10:06:40;100434.41;;;24.08;48.55
40490;BME280;26196;52.302;10.572;2022-08-19T10:10:42;100429.88;;;24.09;48.63
40490;BME280;26196;52.302;10.572;2022-08-19T10:14:43;100433.56;;;24.08;48.72
40490;BME280;26196;52.302;10.572;2022-08-19T10:18:44;100430.03;;;24.07;48.45
40490;BME280;26196;52.302;10.572;2022-08-19T10:22:45;100426.53;;;24.07;48.79
40490;BME280;26196;52.302;10.572;2022-08-19T10:26:46;100417.63;;;24.06;48.67
40490;BME280;26196;52.302;10.572;2022-08-19T10:30:48;100412.44;;;24.05;49.00
40490;BME280;26196;52.302;10.572;2022-08-19T10:34:48;100411.44;;;24.06;49.08
40490;BME280;26196;52.302;10.572;2022-08-19T10:38:51;100409.59;;;24.06;48.67
40490;BME280;26196;52.302;10.572;2022-08-19T10:42:53;100414.94;;;24.06;48.70
40490;BME280;26196;52.302;10.572;2022-08-19T10:46:57;100387.56;;;23.93;48.86
40490;BME280;26196;52.302;10.572;2022-08-19T10:50:59;100412.44;;;24.05;49.13
40490;BME280;26196;52.302;10.572;2022-08-19T10:55:21;100397.34;;;24.03;49.22
40490;BME280;26196;52.302;10.572;2022-08-19T10:59:40;100388.22;;;24.06;49.43
40490;BME280;26196;52.302;10.572;2022-08-19T11:03:41;100389.09;;;24.07;49.27
40490;BME280;26196;52.302;10.572;2022-08-19T11:07:42;100376.69;;;24.06;49.50
40490;BME280;26196;52.302;10.572;2022-08-19T11:11:45;100376.69;;;24.06;49.70
40490;BME280;26196;52.302;10.572;2022-08-19T11:15:45;100380.34;;;24.05;49.71
40490;BME280;26196;52.302;10.572;2022-08-19T11:19:47;100378.63;;;24.03;49.62
40490;BME280;26196;52.302;10.572;2022-08-19T11:23:50;100375.84;;;24.05;49.70
40490;BME280;26196;52.302;10.572;2022-08-19T11:27:51;100367.94;;;24.03;49.87
40490;BME280;26196;52.302;10.572;2022-08-19T11:31:54;100366.13;;;24.04;50.24
40490;BME280;26196;52.302;10.572;2022-08-19T11:35:58;100370.38;;;24.07;49.95
40490;BME280;26196;52.302;10.572;2022-08-19T11:39:59;100369.50;;;24.06;49.50
40490;BME280;26196;52.302;10.572;2022-08-19T11:43:59;100375.56;;;24.08;50.24
40490;BME280;26196;52.302;10.572;2022-08-19T11:48:00;100376.41;;;24.09;49.82
40490;BME280;26196;52.302;10.572;2022-08-19T11:52:01;100374.16;;;24.04;50.89
40490;BME280;26196;52.302;10.572;2022-08-19T11:56:03;100378.38;;;24.07;50.81
40490;BME280;26196;52.302;10.572;2022-08-19T12:00:04;100379.09;;;24.09;50.25
40490;BME280;26196;52.302;10.572;2022-08-19T12:04:06;100379.81;;;24.11;50.02
40490;BME280;26196;52.302;10.572;2022-08-19T12:08:08;100370.09;;;24.10;49.89
40490;BME280;26196;52.302;10.572;2022-08-19T12:12:09;100365.47;;;24.12;49.65
40490;BME280;26196;52.302;10.572;2022-08-19T12:16:11;100362.81;;;24.12;49.96
40490;BME280;26196;52.302;10.572;2022-08-19T12:20:13;100367.88;;;24.15;50.09
40490;BME280;26196;52.302;10.572;2022-08-19T12:24:15;100371.41;;;24.15;49.72
40490;BME280;26196;52.302;10.572;2022-08-19T12:28:22;100371.97;;;24.19;49.39
40490;BME280;26196;52.302;10.572;2022-08-19T12:32:23;100366.38;;;24.22;49.29
40490;BME280;26196;52.302;10.572;2022-08-19T12:36:24;100380.44;;;24.24;49.12
40490;BME280;26196;52.302;10.572;2022-08-19T12:40:25;100370.84;;;24.21;48.89
40490;BME280;26196;52.302;10.572;2022-08-19T12:44:25;100365.09;;;24.26;48.60
40490;BME280;26196;52.302;10.572;2022-08-19T12:48:26;100365.84;;;24.28;48.91
40490;BME280;26196;52.302;10.572;2022-08-19T12:52:27;100364.84;;;24.29;48.59
40490;BME280;26196;52.302;10.572;2022-08-19T12:56:28;100360.22;;;24.31;48.75
40490;BME280;26196;52.302;10.572;2022-08-19T13:00:28;100356.53;;;24.32;48.45
40490;BME280;26196;52.302;10.572;2022-08-19T13:04:30;100359.38;;;24.31;48.69
40490;BME280;26196;52.302;10.572;2022-08-19T13:08:30;100359.94;;;24.34;48.38
40490;BME280;26196;52.302;10.572;2022-08-19T13:12:31;100359.66;;;24.37;48.00
40490;BME280;26196;52.302;10.572;2022-08-19T13:16:31;100358.81;;;24.37;48.11
40490;BME280;26196;52.302;10.572;2022-08-19T13:20:32;100352.34;;;24.39;47.41
40490;BME280;26196;52.302;10.572;2022-08-19T13:24:33;100347.28;;;24.36;47.47
40490;BME280;26196;52.302;10.572;2022-08-19T13:28:34;100342.38;;;24.41;47.83
40490;BME280;26196;52.302;10.572;2022-08-19T13:32:53;100344.94;;;24.43;48.22
40490;BME280;26196;52.302;10.572;2022-08-19T13:37:12;100342.97;;;24.45;47.25
40490;BME280;26196;52.302;10.572;2022-08-19T13:41:12;100338.59;;;24.44;47.44
40490;BME280;26196;52.302;10.572;2022-08-19T13:45:16;100339.06;;;24.49;47.49
40490;BME280;26196;52.302;10.572;2022-08-19T13:49:18;100341.59;;;24.51;47.95
40490;BME280;26196;52.302;10.572;2022-08-19T13:53:20;100342.28;;;24.53;47.95
40490;BME280;26196;52.302;10.572;2022-08-19T13:57:20;100329.78;;;24.53;47.95
40490;BME280;26196;52.302;10.572;2022-08-19T14:01:22;100337.53;;;24.56;48.08
40490;BME280;26196;52.302;10.572;2022-08-19T14:05:24;100332.75;;;24.60;48.16
40490;BME280;26196;52.302;10.572;2022-08-19T14:09:24;100331.06;;;24.59;48.11
40490;BME280;26196;52.302;10.572;2022-08-19T14:13:25;100338.81;;;24.62;47.92
40490;BME280;26196;52.302;10.572;2022-08-19T14:17:26;100341.22;;;24.65;48.74
40490;BME280;26196;52.302;10.572;2022-08-19T14:21:26;100330.38;;;24.66;48.38
40490;BME280;26196;52.302;10.572;2022-08-19T14:25:29;100342.66;;;24.69;48.42
40490;BME280;26196;52.302;10.572;2022-08-19T14:29:30;100325.59;;;24.70;48.57
40490;BME280;26196;52.302;10.572;2022-08-19T14:33:31;100325.31;;;24.73;48.37
40490;BME280;26196;52.302;10.572;2022-08-19T14:37:34;100322.50;;;24.75;48.30
40490;BME280;26196;52.302;10.572;2022-08-19T14:41:35;100330.38;;;24.76;49.10
40490;BME280;26196;52.302;10.572;2022-08-19T14:45:37;100325.91;;;24.77;49.04
40490;BME280;26196;52.302;10.572;2022-08-19T14:49:38;100314.06;;;24.79;49.05
40490;BME280;26196;52.302;10.572;2022-08-19T14:53:40;100315.47;;;24.83;49.00
40490;BME280;26196;52.302;10.572;2022-08-19T14:57:42;100319.72;;;24.86;49.51
40490;BME280;26196;52.302;10.572;2022-08-19T15:01:43;100319.59;;;24.87;49.30
40490;BME280;26196;52.302;10.572;2022-08-19T15:05:43;100306.88;;;24.89;49.37
40490;BME280;26196;52.302;10.572;2022-08-19T15:09:44;100309.56;;;24.89;49.81
40490;BME280;26196;52.302;10.572;2022-08-19T15:13:44;100310.97;;;24.94;49.35
40490;BME280;26196;52.302;10.572;2022-08-19T15:17:46;100313.53;;;24.95;49.10
40490;BME280;26196;52.302;10.572;2022-08-19T15:21:47;100321.28;;;24.98;49.43
40490;BME280;26196;52.302;10.572;2022-08-19T15:25:48;100321.28;;;24.98;49.75
40490;BME280;26196;52.302;10.572;2022-08-19T15:29:48;100324.50;;;25.02;49.33
40490;BME280;26196;52.302;10.572;2022-08-19T15:33:49;100338.63;;;25.04;49.34
40490;BME280;26196;52.302;10.572;2022-08-19T15:37:50;100331.59;;;25.03;49.62
40490;BME280;26196;52.302;10.572;2022-08-19T15:41:51;100339.16;;;25.07;49.29
40490;BME280;26196;52.302;10.572;2022-08-19T15:45:52;100344.41;;;25.09;49.71
40490;BME280;26196;52.302;10.572;2022-08-19T15:49:52;100338.03;;;25.10;49.51
40490;BME280;26196;52.302;10.572;2022-08-19T15:53:53;100329.03;;;25.11;49.65
40490;BME280;26196;52.302;10.572;2022-08-19T15:57:54;100340.44;;;25.13;49.44
40490;BME280;26196;52.302;10.572;2022-08-19T16:02:14;100323.28;;;25.16;49.40
40490;BME280;26196;52.302;10.572;2022-08-19T16:06:34;100298.47;;;25.14;49.36
40490;BME280;26196;52.302;10.572;2022-08-19T16:10:38;100302.44;;;25.19;49.59
40490;BME280;26196;52.302;10.572;2022-08-19T16:14:39;100302.28;;;25.21;49.55
40490;BME280;26196;52.302;10.572;2022-08-19T16:18:39;100320.78;;;25.24;49.50
40490;BME280;26196;52.302;10.572;2022-08-19T16:22:39;100317.22;;;25.23;49.42
40490;BME280;26196;52.302;10.572;2022-08-19T16:26:41;100324.13;;;25.26;49.28
40490;BME280;26196;52.302;10.572;2022-08-19T16:30:42;100316.81;;;25.28;49.24
40490;BME280;26196;52.302;10.572;2022-08-19T16:34:42;100323.88;;;25.29;49.52
40490;BME280;26196;52.302;10.572;2022-08-19T16:38:43;100317.50;;;25.30;49.18
40490;BME280;26196;52.302;10.572;2022-08-19T16:42:47;100314.84;;;25.30;49.09
40490;BME280;26196;52.302;10.572;2022-08-19T16:46:47;100321.75;;;25.32;48.83
40490;BME280;26196;52.302;10.572;2022-08-19T16:50:49;100326.25;;;25.32;48.78
40490;BME280;26196;52.302;10.572;2022-08-19T16:54:49;100318.94;;;25.34;48.89
40490;BME280;26196;52.302;10.572;2022-08-19T16:58:50;100313.56;;;25.34;48.78
40490;BME280;26196;52.302;10.572;2022-08-19T17:02:51;100307.22;;;25.35;48.67
40490;BME280;26196;52.302;10.572;2022-08-19T17:06:51;100309.91;;;25.35;48.54
40490;BME280;26196;52.302;10.572;2022-08-19T17:10:53;100308.91;;;25.36;48.68
40490;BME280;26196;52.302;10.572;2022-08-19T17:14:54;100296.50;;;25.35;48.64
40490;BME280;26196;52.302;10.572;2022-08-19T17:18:57;100299.91;;;25.37;48.54
40490;BME280;26196;52.302;10.572;2022-08-19T17:22:58;100306.09;;;25.38;48.44
40490;BME280;26196;52.302;10.572;2022-08-19T17:26:59;100316.81;;;25.38;48.32
40490;BME280;26196;52.302;10.572;2022-08-19T17:30:59;100317.66;;;25.38;48.39
40490;BME280;26196;52.302;10.572;2022-08-19T17:35:00;100325.56;;;25.40;48.35
40490;BME280;26196;52.302;10.572;2022-08-19T17:39:02;100333.59;;;25.40;48.35
40490;BME280;26196;52.302;10.572;2022-08-19T17:43:03;100338.94;;;25.40;48.41
40490;BME280;26196;52.302;10.572;2022-08-19T17:47:07;100331.88;;;25.39;48.39
40490;BME280;26196;52.302;10.572;2022-08-19T17:51:23;100333.59;;;25.40;48.32
40490;BME280;26196;52.302;10.572;2022-08-19T17:55:24;100329.19;;;25.39;48.26
40490;BME280;26196;52.302;10.572;2022-08-19T17:59:25;100326.53;;;25.39;48.26
40490;BME280;26196;52.302;10.572;2022-08-19T18:03:25;100323.84;;;25.39;48.31
40490;BME280;26196;52.302;10.572;2022-08-19T18:07:29;100330.91;;;25.40;48.32
40490;BME280;26196;52.302;10.572;2022-08-19T18:11:33;100321.88;;;25.41;48.23
40490;BME280;26196;52.302;10.572;2022-08-19T18:15:34;100317.53;;;25.40;48.09
40490;BME280;26196;52.302;10.572;2022-08-19T18:19:36;100315.50;;;25.42;48.13
40490;BME280;26196;52.302;10.572;2022-08-19T18:23:37;100307.63;;;25.40;48.04
40490;BME280;26196;52.302;10.572;2022-08-19T18:27:38;100306.63;;;25.41;47.87
40490;BME280;26196;52.302;10.572;2022-08-19T18:31:38;100318.19;;;25.42;47.94
40490;BME280;26196;52.302;10.572;2022-08-19T18:35:45;100335.16;;;25.42;47.95
40490;BME280;26196;52.302;10.572;2022-08-19T18:39:47;100343.31;;;25.41;47.78
40490;BME280;26196;52.302;10.572;2022-08-19T18:44:06;100347.00;;;25.40;47.89
40490;BME280;26196;52.302;10.572;2022-08-19T18:48:45;100346.00;;;25.41;47.77
40490;BME280;26196;52.302;10.572;2022-08-19T18:53:04;100337.94;;;25.41;47.77
40490;BME280;26196;52.302;10.572;2022-08-19T18:57:05;100338.09;;;25.39;47.81
40490;BME280;26196;52.302;10.572;2022-08-19T19:01:10;100341.63;;;25.40;47.74
40490;BME280;26196;52.302;10.572;2022-08-19T19:05:13;100359.50;;;25.39;47.77
40490;BME280;26196;52.302;10.572;2022-08-19T19:09:17;100360.50;;;25.38;47.82
40490;BME280;26196;52.302;10.572;2022-08-19T19:13:18;100354.44;;;25.36;47.66
40490;BME280;26196;52.302;10.572;2022-08-19T19:17:19;100367.84;;;25.36;47.62
40490;BME280;26196;52.302;10.572;2022-08-19T19:21:27;100372.34;;;25.36;47.62
40490;BME280;26196;52.302;10.572;2022-08-19T19:25:27;100358.81;;;25.27;47.47
40490;BME280;26196;52.302;10.572;2022-08-19T19:29:28;100373.47;;;25.33;47.39
40490;BME280;26196;52.302;10.572;2022-08-19T19:33:28;100385.91;;;25.34;47.36
40490;BME280;26196;52.302;10.572;2022-08-19T19:37:29;100386.75;;;25.35;47.34
40490;BME280;26196;52.302;10.572;2022-08-19T19:41:29;100385.03;;;25.33;47.24
40490;BME280;26196;52.302;10.572;2022-08-19T19:45:31;100393.25;;;25.32;47.16
40490;BME280;26196;52.302;10.572;2022-08-19T19:49:32;100395.91;;;25.32;47.27
40490;BME280;26196;52.302;10.572;2022-08-19T19:53:33;100390.41;;;25.24;47.01
40490;BME280;26196;52.302;10.572;2022-08-19T19:57:33;100413.97;;;25.30;47.06
40490;BME280;26196;52.302;10.572;2022-08-19T20:01:34;100410.44;;;25.29;46.86
40490;BME280;26196;52.302;10.572;2022-08-19T20:05:34;100417.75;;;25.27;46.75
40490;BME280;26196;52.302;10.572;2022-08-19T20:09:34;100415.66;;;25.21;46.80
40490;BME280;26196;52.302;10.572;2022-08-19T20:13:35;100426.91;;;25.25;46.86
40490;BME280;26196;52.302;10.572;2022-08-19T20:17:40;100416.63;;;25.20;46.55
40490;BME280;26196;52.302;10.572;2022-08-19T20:21:43;100427.31;;;25.20;46.80
40490;BME280;26196;52.302;10.572;2022-08-19T20:25:44;100431.00;;;25.19;46.86
40490;BME280;26196;52.302;10.572;2022-08-19T20:29:47;100433.81;;;25.18;46.68
40490;BME280;26196;52.302;10.572;2022-08-19T20:33:48;100432.22;;;25.15;46.70
40490;BME280;26196;52.302;10.572;2022-08-19T20:37:49;100431.38;;;25.15;46.67
40490;BME280;26196;52.302;10.572;2022-08-19T20:41:50;100415.59;;;25.11;46.60
40490;BME280;26196;52.302;10.572;2022-08-19T20:45:50;100416.44;;;25.12;46.45
40490;BME280;26196;52.302;10.572;2022-08-19T20:49:51;100423.63;;;25.11;46.38
40490;BME280;26196;52.302;10.572;2022-08-19T20:53:52;100431.78;;;25.10;46.47
40490;BME280;26196;52.302;10.572;2022-08-19T20:57:53;100428.53;;;25.06;46.39
40490;BME280;26196;52.302;10.572;2022-08-19T21:01:54;100427.00;;;25.04;46.53